createdAt,value
2019-06-11T00:00:19.412Z,20.63
2019-06-11T00:01:19.440Z,20.55
2019-06-11T00:02:30.166Z,20.55
2019-06-11T00:03:19.482Z,20.64
2019-06-11T00:04:19.507Z,20.60
2019-06-11T00:05:19.530Z,20.58
2019-06-11T00:06:19.556Z,20.58
2019-06-11T00:07:21.932Z,20.53
2019-06-11T00:08:19.594Z,20.55
2019-06-11T00:09:21.970Z,20.63
2019-06-11T00:10:19.643Z,20.46
2019-06-11T00:11:19.664Z,20.48
2019-06-11T00:12:19.690Z,20.53
2019-06-11T00:13:19.713Z,20.56
2019-06-11T00:14:19.735Z,20.55
2019-06-11T00:15:22.326Z,20.53
2019-06-11T00:16:19.787Z,20.49
2019-06-11T00:17:22.231Z,20.53
2019-06-11T00:18:19.829Z,20.52
2019-06-11T00:19:19.852Z,20.52
2019-06-11T00:20:22.610Z,20.48
2019-06-11T00:21:19.898Z,20.55
2019-06-11T00:22:19.920Z,20.50
2019-06-11T00:23:22.053Z,20.58
2019-06-11T00:24:22.433Z,20.58
2019-06-11T00:25:19.987Z,20.53
2019-06-11T00:26:22.374Z,20.48
2019-06-11T00:27:22.170Z,20.48
2019-06-11T00:28:22.061Z,20.55
2019-06-11T00:29:22.699Z,20.49
2019-06-11T00:30:22.294Z,20.48
2019-06-11T00:31:20.128Z,20.52
2019-06-11T00:32:30.185Z,20.40
2019-06-11T00:33:22.436Z,20.49
2019-06-11T00:34:20.199Z,20.44
2019-06-11T00:35:20.226Z,20.42
2019-06-11T00:36:22.470Z,20.39
2019-06-11T00:37:21.996Z,20.39
2019-06-11T00:38:22.880Z,20.36
2019-06-11T00:39:22.254Z,20.32
2019-06-11T00:40:20.335Z,20.34
2019-06-11T00:41:22.564Z,20.30
2019-06-11T00:42:22.075Z,20.37
2019-06-11T00:43:22.832Z,20.39
2019-06-11T00:44:23.077Z,20.34
2019-06-11T00:45:22.880Z,20.19
2019-06-11T00:46:23.183Z,20.22
2019-06-11T00:47:22.487Z,20.24
2019-06-11T00:48:22.666Z,20.18
2019-06-11T00:49:23.061Z,20.24
2019-06-11T00:50:22.632Z,20.18
2019-06-11T00:51:20.591Z,20.22
2019-06-11T00:52:22.449Z,20.17
2019-06-11T00:53:20.636Z,20.21
2019-06-11T00:54:22.987Z,20.21
2019-06-11T00:55:23.092Z,20.14
2019-06-11T00:56:23.146Z,20.17
2019-06-11T00:57:22.570Z,20.18
2019-06-11T00:58:22.528Z,20.10
2019-06-11T00:59:23.061Z,20.02
2019-06-11T01:00:22.605Z,20.08
2019-06-11T01:01:22.509Z,20.03
2019-06-11T01:02:23.121Z,20.03
2019-06-11T01:03:22.726Z,20.02
2019-06-11T01:04:23.031Z,19.96
2019-06-11T01:05:22.548Z,20.00
2019-06-11T01:06:22.959Z,19.89
2019-06-11T01:07:22.671Z,19.84
2019-06-11T01:08:22.583Z,19.93
2019-06-11T01:09:23.393Z,19.92
2019-06-11T01:10:22.828Z,19.93
2019-06-11T01:11:22.611Z,19.82
2019-06-11T01:12:23.146Z,19.82
2019-06-11T01:13:22.977Z,19.87
2019-06-11T01:14:23.711Z,19.90
2019-06-11T01:15:23.152Z,19.84
2019-06-11T01:16:22.983Z,19.94
2019-06-11T01:17:23.379Z,19.92
2019-06-11T01:18:23.755Z,19.84
2019-06-11T01:19:23.125Z,19.81
2019-06-11T01:20:23.442Z,19.78
2019-06-11T01:21:23.295Z,19.75
2019-06-11T01:22:22.834Z,19.77
2019-06-11T01:23:22.415Z,19.82
2019-06-11T01:24:23.019Z,19.79
2019-06-11T01:25:23.477Z,19.82
2019-06-11T01:26:23.804Z,19.78
2019-06-11T01:27:22.192Z,19.70
2019-06-11T01:28:23.464Z,19.71
2019-06-11T01:29:23.230Z,19.70
2019-06-11T01:30:23.314Z,19.66
2019-06-11T01:31:22.818Z,19.66
2019-06-11T01:32:22.561Z,19.64
2019-06-11T01:33:23.735Z,19.56
2019-06-11T01:34:22.358Z,19.62
2019-06-11T01:35:23.315Z,19.63
2019-06-11T01:36:23.491Z,19.57
2019-06-11T01:37:22.820Z,19.55
2019-06-11T01:38:23.195Z,19.53
2019-06-11T01:39:22.319Z,19.52
2019-06-11T01:40:23.026Z,19.49
2019-06-11T01:41:22.480Z,19.48
2019-06-11T01:42:22.162Z,19.41
2019-06-11T01:43:23.244Z,19.53
2019-06-11T01:44:23.073Z,19.39
2019-06-11T01:45:22.875Z,19.39
2019-06-11T01:46:22.501Z,19.35
2019-06-11T01:47:22.125Z,19.32
2019-06-11T01:48:23.127Z,19.35
2019-06-11T01:49:22.330Z,19.24
2019-06-11T01:50:23.436Z,19.24
2019-06-11T01:51:23.747Z,19.29
2019-06-11T01:52:22.136Z,19.34
2019-06-11T01:53:23.274Z,19.30
2019-06-11T01:54:22.517Z,19.29
2019-06-11T01:55:23.283Z,19.24
2019-06-11T01:56:22.713Z,19.22
2019-06-11T01:57:22.908Z,19.26
2019-06-11T01:58:23.097Z,19.26
2019-06-11T01:59:23.257Z,19.22
2019-06-11T02:00:26.433Z,19.17
2019-06-11T02:01:26.193Z,19.09
2019-06-11T02:02:22.844Z,19.11
2019-06-11T02:03:37.516Z,19.08
2019-06-11T02:04:22.846Z,19.09
2019-06-11T02:05:22.500Z,19.12
2019-06-11T02:06:23.380Z,19.00
2019-06-11T02:07:22.513Z,19.00
2019-06-11T02:08:23.513Z,18.96
2019-06-11T02:09:22.836Z,18.94
2019-06-11T02:10:22.591Z,18.96
2019-06-11T02:11:23.548Z,18.88
2019-06-11T02:12:22.553Z,18.85
2019-06-11T02:13:23.387Z,18.88
2019-06-11T02:14:22.773Z,18.82
2019-06-11T02:15:23.438Z,18.88
2019-06-11T02:16:24.461Z,18.85
2019-06-11T02:17:22.759Z,18.83
2019-06-11T02:18:23.169Z,18.81
2019-06-11T02:19:24.262Z,18.78
2019-06-11T02:20:22.694Z,18.70
2019-06-11T02:21:23.829Z,18.66
2019-06-11T02:22:22.940Z,18.64
2019-06-11T02:23:22.721Z,18.70
2019-06-11T02:24:23.169Z,18.63
2019-06-11T02:25:22.895Z,18.66
2019-06-11T02:26:23.068Z,18.63
2019-06-11T02:27:23.155Z,18.63
2019-06-11T02:28:23.057Z,18.53
2019-06-11T02:29:22.849Z,18.46
2019-06-11T02:30:42.968Z,18.48
2019-06-11T02:31:31.980Z,18.52
2019-06-11T02:32:28.700Z,18.41
2019-06-11T02:33:48.480Z,18.48
2019-06-11T02:34:54.690Z,18.43
2019-06-11T02:35:43.535Z,18.42
2019-06-11T02:36:30.289Z,18.37
2019-06-11T02:37:28.150Z,18.42
2019-06-11T02:38:28.221Z,18.37
2019-06-11T02:39:28.174Z,18.27
2019-06-11T02:40:28.383Z,18.26
2019-06-11T02:41:28.111Z,18.30
2019-06-11T02:42:27.046Z,18.28
2019-06-11T02:43:27.925Z,18.24
2019-06-11T02:44:28.581Z,18.23
2019-06-11T02:45:28.142Z,18.33
2019-06-11T02:46:29.053Z,18.30
2019-06-11T02:47:28.736Z,18.30
2019-06-11T02:48:29.389Z,18.28
2019-06-11T02:49:27.537Z,18.28
2019-06-11T02:50:29.006Z,18.21
2019-06-11T02:51:28.140Z,18.26
2019-06-11T02:52:27.860Z,18.13
2019-06-11T02:53:28.122Z,18.12
2019-06-11T02:54:29.494Z,18.11
2019-06-11T02:55:28.959Z,18.13
2019-06-11T02:56:28.675Z,18.15
2019-06-11T02:57:29.649Z,18.13
2019-06-11T02:58:30.224Z,18.13
2019-06-11T02:59:29.451Z,18.13
2019-06-11T03:00:34.660Z,18.09
2019-06-11T03:01:30.819Z,18.09
2019-06-11T03:02:30.027Z,18.12
2019-06-11T03:03:29.184Z,18.08
2019-06-11T03:04:46.905Z,18.08
2019-06-11T03:05:34.051Z,18.00
2019-06-11T03:06:31.783Z,18.06
2019-06-11T03:07:28.555Z,18.00
2019-06-11T03:08:28.738Z,18.08
2019-06-11T03:09:29.277Z,18.05
2019-06-11T03:10:30.088Z,17.94
2019-06-11T03:11:31.840Z,17.98
2019-06-11T03:12:27.879Z,17.95
2019-06-11T03:13:28.352Z,17.97
2019-06-11T03:14:30.616Z,17.94
2019-06-11T03:15:30.946Z,17.97
2019-06-11T03:16:33.650Z,17.94
2019-06-11T03:17:28.943Z,17.94
2019-06-11T03:18:29.390Z,17.97
2019-06-11T03:19:30.547Z,17.94
2019-06-11T03:20:30.289Z,18.02
2019-06-11T03:21:33.819Z,17.88
2019-06-11T03:22:31.448Z,17.91
2019-06-11T03:23:27.818Z,17.93
2019-06-11T03:24:30.413Z,17.90
2019-06-11T03:25:28.464Z,17.87
2019-06-11T03:26:28.710Z,17.93
2019-06-11T03:27:28.002Z,17.90
2019-06-11T03:28:28.035Z,17.91
2019-06-11T03:29:28.046Z,17.87
2019-06-11T03:31:05.436Z,17.90
2019-06-11T03:32:23.110Z,17.90
2019-06-11T03:32:56.900Z,17.93
2019-06-11T03:34:04.047Z,17.86
2019-06-11T03:35:14.879Z,17.88
2019-06-11T03:37:10.597Z,17.95
2019-06-11T03:38:55.531Z,17.91
2019-06-11T03:39:41.108Z,17.87
2019-06-11T03:40:29.704Z,17.87
2019-06-11T03:41:28.375Z,17.90
2019-06-11T03:42:29.475Z,17.87
2019-06-11T03:43:28.442Z,17.87
2019-06-11T03:44:30.529Z,17.88
2019-06-11T03:45:30.197Z,17.87
2019-06-11T03:46:31.105Z,17.87
2019-06-11T03:47:28.905Z,17.87
2019-06-11T03:48:29.377Z,17.84
2019-06-11T03:49:31.177Z,17.93
2019-06-11T03:50:28.035Z,17.87
2019-06-11T03:51:30.712Z,17.87
2019-06-11T03:52:29.713Z,17.87
2019-06-11T03:53:31.968Z,17.90
2019-06-11T03:54:27.697Z,17.88
2019-06-11T03:55:29.557Z,17.90
2019-06-11T03:56:30.228Z,17.88
2019-06-11T03:57:29.243Z,17.90
2019-06-11T03:58:31.942Z,17.90
2019-06-11T03:59:30.162Z,17.90
2019-06-11T04:00:39.581Z,17.88
2019-06-11T04:01:30.785Z,17.86
2019-06-11T04:02:30.949Z,17.94
2019-06-11T04:03:30.330Z,17.94
2019-06-11T04:04:30.398Z,17.91
2019-06-11T04:05:28.621Z,17.90
2019-06-11T04:06:51.295Z,17.93
2019-06-11T04:07:41.526Z,17.86
2019-06-11T04:08:28.994Z,17.91
2019-06-11T04:09:29.877Z,17.90
2019-06-11T04:10:31.843Z,17.91
2019-06-11T04:11:28.643Z,17.94
2019-06-11T04:12:29.737Z,17.97
2019-06-11T04:13:30.436Z,18.03
2019-06-11T04:14:29.665Z,17.98
2019-06-11T04:15:30.575Z,18.08
2019-06-11T04:16:59.117Z,18.02
2019-06-11T04:17:42.649Z,18.02
2019-06-11T04:18:30.780Z,18.06
2019-06-11T04:19:29.943Z,18.08
2019-06-11T04:20:30.052Z,18.18
2019-06-11T04:21:30.342Z,18.18
2019-06-11T04:22:29.840Z,18.16
2019-06-11T04:23:31.621Z,18.09
2019-06-11T04:24:28.802Z,18.16
2019-06-11T04:25:30.611Z,18.15
2019-06-11T04:26:25.439Z,18.18
2019-06-11T04:27:29.179Z,18.15
2019-06-11T04:28:30.135Z,18.27
2019-06-11T04:29:30.863Z,18.19
2019-06-11T04:30:42.131Z,18.26
2019-06-11T04:31:31.470Z,18.26
2019-06-11T04:32:29.880Z,18.27
2019-06-11T04:33:32.712Z,18.27
2019-06-11T04:34:32.267Z,18.36
2019-06-11T04:35:31.088Z,18.27
2019-06-11T04:36:31.893Z,18.18
2019-06-11T04:37:54.759Z,18.31
2019-06-11T04:38:36.255Z,18.18
2019-06-11T04:39:29.611Z,18.27
2019-06-11T04:40:34.707Z,18.33
2019-06-11T04:41:31.101Z,18.30
2019-06-11T04:42:31.106Z,18.26
2019-06-11T04:43:32.745Z,18.27
2019-06-11T04:44:30.195Z,18.28
2019-06-11T04:45:30.979Z,18.24
2019-06-11T04:46:32.305Z,18.34
2019-06-11T04:47:39.244Z,18.36
2019-06-11T04:48:32.959Z,18.31
2019-06-11T04:49:33.095Z,18.37
2019-06-11T04:50:31.574Z,18.34
2019-06-11T04:51:32.301Z,18.39
2019-06-11T04:52:28.954Z,18.41
2019-06-11T04:53:31.402Z,18.46
2019-06-11T04:54:30.945Z,18.46
2019-06-11T04:55:35.438Z,18.36
2019-06-11T04:56:33.504Z,18.36
2019-06-11T04:57:31.194Z,18.49
2019-06-11T04:58:32.954Z,18.49
2019-06-11T04:59:31.959Z,18.55
2019-06-11T05:01:03.453Z,18.49
2019-06-11T05:05:32.227Z,18.60
2019-06-11T05:06:33.286Z,18.60
2019-06-11T05:07:52.462Z,18.64
2019-06-11T05:08:36.921Z,18.66
2019-06-11T05:09:37.045Z,18.64
2019-06-11T05:10:32.373Z,18.64
2019-06-11T05:11:31.850Z,18.67
2019-06-11T05:12:31.704Z,18.66
2019-06-11T05:13:32.717Z,18.78
2019-06-11T05:14:40.819Z,18.76
2019-06-11T05:15:31.021Z,18.82
2019-06-11T05:16:33.836Z,18.82
2019-06-11T05:17:32.907Z,18.92
2019-06-11T05:18:31.946Z,18.91
2019-06-11T05:19:34.847Z,19.01
2019-06-11T05:20:30.062Z,19.07
2019-06-11T05:21:34.085Z,19.00
2019-06-11T05:22:32.080Z,19.08
2019-06-11T05:23:31.038Z,19.20
2019-06-11T05:24:32.494Z,19.24
2019-06-11T05:25:41.003Z,19.19
2019-06-11T05:26:33.792Z,19.29
2019-06-11T05:27:29.590Z,19.37
2019-06-11T05:28:31.043Z,19.42
2019-06-11T05:29:29.981Z,19.63
2019-06-11T05:30:35.929Z,19.63
2019-06-11T05:31:35.491Z,19.67
2019-06-11T05:32:29.557Z,19.77
2019-06-11T05:33:29.973Z,19.82
2019-06-11T05:34:29.624Z,19.84
2019-06-11T05:35:28.871Z,19.84
2019-06-11T05:36:30.809Z,19.97
2019-06-11T05:37:56.390Z,19.90
2019-06-11T05:38:42.460Z,20.00
2019-06-11T05:39:30.156Z,19.99
2019-06-11T05:40:30.719Z,20.03
2019-06-11T05:41:30.215Z,20.04
2019-06-11T05:42:31.345Z,19.99
2019-06-11T05:43:30.638Z,20.07
2019-06-11T05:44:30.615Z,20.02
2019-06-11T05:45:30.939Z,19.94
2019-06-11T05:46:29.815Z,19.97
2019-06-11T05:47:28.496Z,20.02
2019-06-11T05:48:30.139Z,19.94
2019-06-11T05:49:28.417Z,19.99
2019-06-11T05:50:28.975Z,20.10
2019-06-11T05:51:28.308Z,20.10
2019-06-11T05:52:28.100Z,20.11
2019-06-11T05:53:27.460Z,20.12
2019-06-11T05:54:27.483Z,20.02
2019-06-11T05:55:27.642Z,20.15
2019-06-11T05:56:27.531Z,20.17
2019-06-11T05:57:27.556Z,20.14
2019-06-11T05:58:28.401Z,20.14
2019-06-11T05:59:28.104Z,20.14
2019-06-11T06:00:27.793Z,20.12
2019-06-11T06:01:36.484Z,20.22
2019-06-11T06:02:28.801Z,20.21
2019-06-11T06:03:27.826Z,20.26
2019-06-11T06:04:27.857Z,20.32
2019-06-11T06:05:27.903Z,20.33
2019-06-11T06:06:27.877Z,20.36
2019-06-11T06:07:27.937Z,20.42
2019-06-11T06:08:31.666Z,20.40
2019-06-11T06:09:28.021Z,20.49
2019-06-11T06:10:27.876Z,20.53
2019-06-11T06:11:28.579Z,20.55
2019-06-11T06:12:28.580Z,20.63
2019-06-11T06:13:28.010Z,20.64
2019-06-11T06:14:28.714Z,20.58
2019-06-11T06:15:28.124Z,20.78
2019-06-11T06:16:35.852Z,20.78
2019-06-11T06:17:28.704Z,20.90
2019-06-11T06:18:28.197Z,20.93
2019-06-11T06:19:28.305Z,21.03
2019-06-11T06:20:28.953Z,21.05
2019-06-11T06:21:28.667Z,21.19
2019-06-11T06:22:30.409Z,21.30
2019-06-11T06:23:28.297Z,21.37
2019-06-11T06:24:37.729Z,21.58
2019-06-11T06:25:36.337Z,21.65
2019-06-11T06:26:29.778Z,21.77
2019-06-11T06:27:31.067Z,21.74
2019-06-11T06:28:30.385Z,21.92
2019-06-11T06:29:31.699Z,22.10
2019-06-11T06:30:31.240Z,22.00
2019-06-11T06:31:30.749Z,22.21
2019-06-11T06:32:31.724Z,22.19
2019-06-11T06:33:30.977Z,22.28
2019-06-11T06:34:31.761Z,22.30
2019-06-11T06:35:30.738Z,22.41
2019-06-11T06:36:30.826Z,22.44
2019-06-11T06:37:29.329Z,22.43
2019-06-11T06:38:38.678Z,22.53
2019-06-11T06:39:31.454Z,22.55
2019-06-11T06:40:30.638Z,22.80
2019-06-11T06:41:31.280Z,22.89
2019-06-11T06:42:29.704Z,22.91
2019-06-11T06:43:32.085Z,23.06
2019-06-11T06:44:32.166Z,23.21
2019-06-11T06:45:32.496Z,23.21
2019-06-11T06:46:31.027Z,23.36
2019-06-11T06:47:31.643Z,23.54
2019-06-11T06:48:32.275Z,23.63
2019-06-11T06:49:31.619Z,23.81
2019-06-11T06:50:31.219Z,23.91
2019-06-11T06:51:30.966Z,23.96
2019-06-11T06:52:31.175Z,24.13
2019-06-11T06:53:31.323Z,24.19
2019-06-11T06:54:31.876Z,24.37
2019-06-11T06:55:31.356Z,24.44
2019-06-11T06:56:31.760Z,24.46
2019-06-11T06:57:29.706Z,24.50
2019-06-11T06:58:33.369Z,24.62
2019-06-11T06:59:32.297Z,24.58
2019-06-11T07:00:34.246Z,24.65
2019-06-11T07:01:33.725Z,24.79
2019-06-11T07:02:31.858Z,24.82
2019-06-11T07:03:33.313Z,24.96
2019-06-11T07:04:32.414Z,25.06
2019-06-11T07:05:31.529Z,25.14
2019-06-11T07:06:32.094Z,25.22
2019-06-11T07:07:32.219Z,25.33
2019-06-11T07:08:49.237Z,25.43
2019-06-11T07:09:32.624Z,25.31
2019-06-11T07:10:32.038Z,25.39
2019-06-11T07:11:31.711Z,25.55
2019-06-11T07:12:31.826Z,25.54
2019-06-11T07:13:33.788Z,25.51
2019-06-11T07:14:32.844Z,25.67
2019-06-11T07:15:34.074Z,25.63
2019-06-11T07:16:49.370Z,25.70
2019-06-11T07:17:33.204Z,25.63
2019-06-11T07:18:33.405Z,25.55
2019-06-11T07:19:33.775Z,25.62
2019-06-11T07:20:33.780Z,25.63
2019-06-11T07:21:33.798Z,25.73
2019-06-11T07:22:33.558Z,25.83
2019-06-11T07:23:34.132Z,25.89
2019-06-11T07:24:32.262Z,26.07
2019-06-11T07:25:32.433Z,26.11
2019-06-11T07:26:33.580Z,26.22
2019-06-11T07:27:33.307Z,26.22
2019-06-11T07:28:32.725Z,26.27
2019-06-11T07:29:33.004Z,26.36
2019-06-11T07:30:33.522Z,26.37
2019-06-11T07:31:34.816Z,26.45
2019-06-11T07:32:30.700Z,26.51
2019-06-11T07:33:33.446Z,26.59
2019-06-11T07:34:35.320Z,26.63
2019-06-11T07:35:31.111Z,26.67
2019-06-11T07:36:34.626Z,26.73
2019-06-11T07:37:31.105Z,26.61
2019-06-11T07:38:32.495Z,26.68
2019-06-11T07:39:32.061Z,26.73
2019-06-11T07:40:31.361Z,26.79
2019-06-11T07:41:31.097Z,26.82
2019-06-11T07:42:32.836Z,26.76
2019-06-11T07:43:34.757Z,26.81
2019-06-11T07:44:31.535Z,26.91
2019-06-11T07:45:31.902Z,26.86
2019-06-11T07:46:41.320Z,26.79
2019-06-11T07:47:33.378Z,26.93
2019-06-11T07:48:34.081Z,27.04
2019-06-11T07:49:33.413Z,27.23
2019-06-11T07:50:32.143Z,27.23
2019-06-11T07:51:32.245Z,27.19
2019-06-11T07:52:32.422Z,27.30
2019-06-11T07:53:33.613Z,27.38
2019-06-11T07:54:33.233Z,27.45
2019-06-11T07:55:31.874Z,27.66
2019-06-11T07:56:31.566Z,27.64
2019-06-11T07:57:32.505Z,27.68
2019-06-11T07:58:32.588Z,27.85
2019-06-11T07:59:32.588Z,27.76
2019-06-11T08:00:32.895Z,27.75
2019-06-11T08:01:32.900Z,27.86
2019-06-11T08:02:33.219Z,27.93
2019-06-11T08:03:34.252Z,27.98
2019-06-11T08:04:32.345Z,28.09
2019-06-11T08:05:32.708Z,28.10
2019-06-11T08:06:32.590Z,28.20
2019-06-11T08:07:34.475Z,28.16
2019-06-11T08:08:32.662Z,28.27
2019-06-11T08:09:52.828Z,28.31
2019-06-11T08:10:38.025Z,28.13
2019-06-11T08:11:34.099Z,28.13
2019-06-11T08:12:35.939Z,28.23
2019-06-11T08:13:38.638Z,28.33
2019-06-11T08:14:33.197Z,28.34
2019-06-11T08:15:33.405Z,28.41
2019-06-11T08:16:33.388Z,28.53
2019-06-11T08:17:34.297Z,28.62
2019-06-11T08:18:34.155Z,28.67
2019-06-11T08:21:02.903Z,28.80
2019-06-11T08:21:50.913Z,28.90
2019-06-11T08:22:39.846Z,29.00
2019-06-11T08:23:34.983Z,29.05
2019-06-11T08:24:35.559Z,29.06
2019-06-11T08:25:33.576Z,29.22
2019-06-11T08:26:47.439Z,28.78
2019-06-11T08:27:47.649Z,29.21
2019-06-11T08:28:32.114Z,29.28
2019-06-11T08:29:32.151Z,29.31
2019-06-11T08:30:32.186Z,29.28
2019-06-11T08:31:32.219Z,29.40
2019-06-11T08:32:32.333Z,29.49
2019-06-11T08:33:32.333Z,29.61
2019-06-11T08:34:32.391Z,29.73
2019-06-11T08:35:32.400Z,29.69
2019-06-11T08:36:32.400Z,29.77
2019-06-11T08:37:32.436Z,29.73
2019-06-11T08:38:32.470Z,29.74
2019-06-11T08:39:33.739Z,29.74
2019-06-11T08:40:32.540Z,29.64
2019-06-11T08:41:32.583Z,29.68
2019-06-11T08:42:32.610Z,29.68
2019-06-11T08:43:32.647Z,29.71
2019-06-11T08:44:32.683Z,29.71
2019-06-11T08:45:32.719Z,29.74
2019-06-11T08:46:32.750Z,29.67
2019-06-11T08:47:32.786Z,29.68
2019-06-11T08:48:32.836Z,29.64
2019-06-11T08:49:32.857Z,29.65
2019-06-11T08:50:32.892Z,29.64
2019-06-11T08:51:32.932Z,29.73
2019-06-11T08:52:32.966Z,29.81
2019-06-11T08:53:32.996Z,29.95
2019-06-11T08:54:33.030Z,30.05
2019-06-11T08:55:33.067Z,30.14
2019-06-11T08:56:33.101Z,30.33
2019-06-11T08:57:33.136Z,30.39
2019-06-11T08:58:33.169Z,30.48
2019-06-11T08:59:33.205Z,30.61
2019-06-11T09:00:45.238Z,30.67
2019-06-11T09:01:33.279Z,30.83
2019-06-11T09:02:33.310Z,30.88
2019-06-11T09:03:33.347Z,30.92
2019-06-11T09:04:33.386Z,30.99
2019-06-11T09:05:33.419Z,31.05
2019-06-11T09:06:33.485Z,31.11
2019-06-11T09:07:33.491Z,31.08
2019-06-11T09:08:33.527Z,31.05
2019-06-11T09:09:33.564Z,31.08
2019-06-11T09:10:34.768Z,31.02
2019-06-11T09:11:33.647Z,31.10
2019-06-11T09:12:33.672Z,31.05
2019-06-11T09:13:33.707Z,31.05
2019-06-11T09:14:33.742Z,31.08
2019-06-11T09:15:33.779Z,31.10
2019-06-11T09:16:33.814Z,31.17
2019-06-11T09:17:33.853Z,31.20
2019-06-11T09:18:33.889Z,31.26
2019-06-11T09:19:33.925Z,31.29
2019-06-11T09:20:33.960Z,31.36
2019-06-11T09:21:33.999Z,31.42
2019-06-11T09:22:34.036Z,31.52
2019-06-11T09:23:34.070Z,31.60
2019-06-11T09:24:34.109Z,31.77
2019-06-11T09:25:34.147Z,31.89
2019-06-11T09:26:34.263Z,31.98
2019-06-11T09:27:34.261Z,32.09
2019-06-11T09:28:34.330Z,32.04
2019-06-11T09:29:34.321Z,32.20
2019-06-11T09:30:34.335Z,32.27
2019-06-11T09:31:34.371Z,32.46
2019-06-11T09:32:34.409Z,32.63
2019-06-11T09:33:34.448Z,32.71
2019-06-11T09:34:34.486Z,32.86
2019-06-11T09:35:34.531Z,32.97
2019-06-11T09:36:36.354Z,33.00
2019-06-11T09:37:34.603Z,33.04
2019-06-11T09:38:34.640Z,33.26
2019-06-11T09:39:34.679Z,33.32
2019-06-11T09:40:46.905Z,33.38
2019-06-11T09:41:34.758Z,33.31
2019-06-11T09:42:34.798Z,33.35
2019-06-11T09:43:34.836Z,33.39
2019-06-11T09:44:34.877Z,33.51
2019-06-11T09:45:34.917Z,33.65
2019-06-11T09:46:34.955Z,33.60
2019-06-11T09:47:44.987Z,33.70
2019-06-11T09:48:35.033Z,33.75
2019-06-11T09:49:35.074Z,33.77
2019-06-11T09:50:35.113Z,33.91
2019-06-11T09:51:35.153Z,33.92
2019-06-11T09:52:35.204Z,34.09
2019-06-11T09:53:35.234Z,34.10
2019-06-11T09:54:35.273Z,34.18
2019-06-11T09:55:35.313Z,34.41
2019-06-11T09:56:35.353Z,34.53
2019-06-11T09:57:35.392Z,34.56
2019-06-11T09:58:35.433Z,34.55
2019-06-11T09:59:35.472Z,34.62
2019-06-11T10:00:35.529Z,34.79
2019-06-11T10:01:35.559Z,34.83
2019-06-11T10:02:35.592Z,34.93
2019-06-11T10:03:35.634Z,35.04
2019-06-11T10:04:35.674Z,35.27
2019-06-11T10:05:35.716Z,35.22
2019-06-11T10:06:35.754Z,35.25
2019-06-11T10:07:35.797Z,35.31
2019-06-11T10:08:35.837Z,35.35
2019-06-11T10:09:35.877Z,35.49
2019-06-11T10:10:46.405Z,35.57
2019-06-11T10:11:41.639Z,35.71
2019-06-11T10:12:36.007Z,35.74
2019-06-11T10:13:36.040Z,35.84
2019-06-11T10:14:36.080Z,35.90
2019-06-11T10:15:36.208Z,35.98
2019-06-11T10:16:36.198Z,35.91
2019-06-11T10:17:36.242Z,36.03
2019-06-11T10:18:36.289Z,36.13
2019-06-11T10:19:36.286Z,36.22
2019-06-11T10:20:36.753Z,36.32
2019-06-11T10:21:36.370Z,36.39
2019-06-11T10:22:36.410Z,36.33
2019-06-11T10:23:36.451Z,36.29
2019-06-11T10:24:36.493Z,36.28
2019-06-11T10:25:36.538Z,36.25
2019-06-11T10:26:36.576Z,36.24
2019-06-11T10:27:36.619Z,36.28
2019-06-11T10:28:36.659Z,35.82
2019-06-11T10:29:36.707Z,36.03
2019-06-11T10:30:36.750Z,36.22
2019-06-11T10:31:36.780Z,36.25
2019-06-11T10:32:36.822Z,36.33
2019-06-11T10:33:36.864Z,36.38
2019-06-11T10:34:36.905Z,36.45
2019-06-11T10:35:36.944Z,36.55
2019-06-11T10:36:36.988Z,36.35
2019-06-11T10:37:37.027Z,36.44
2019-06-11T10:38:37.067Z,36.35
2019-06-11T10:39:37.110Z,36.31
2019-06-11T10:40:37.151Z,36.25
2019-06-11T10:41:48.042Z,36.33
2019-06-11T10:42:40.996Z,36.38
2019-06-11T10:43:37.272Z,36.35
2019-06-11T10:44:37.311Z,36.33
2019-06-11T10:45:37.356Z,36.35
2019-06-11T10:46:37.390Z,36.36
2019-06-11T10:47:37.431Z,36.36
2019-06-11T10:48:37.470Z,36.33
2019-06-11T10:49:37.548Z,36.20
2019-06-11T10:50:37.550Z,35.88
2019-06-11T10:51:39.964Z,35.68
2019-06-11T10:52:37.626Z,35.69
2019-06-11T10:53:37.668Z,35.72
2019-06-11T10:54:37.706Z,35.69
2019-06-11T10:55:37.742Z,35.68
2019-06-11T10:56:40.141Z,35.74
2019-06-11T10:57:37.826Z,35.82
2019-06-11T10:58:40.336Z,35.94
2019-06-11T10:59:37.896Z,36.01
2019-06-11T11:00:37.936Z,36.06
2019-06-11T11:01:40.914Z,36.17
2019-06-11T11:02:38.015Z,36.22
2019-06-11T11:03:40.273Z,36.28
2019-06-11T11:04:39.980Z,36.22
2019-06-11T11:05:40.479Z,36.17
2019-06-11T11:06:40.064Z,36.09
2019-06-11T11:07:38.210Z,35.97
2019-06-11T11:08:38.251Z,35.98
2019-06-11T11:09:38.285Z,36.03
2019-06-11T11:10:40.516Z,35.93
2019-06-11T11:11:40.546Z,35.86
2019-06-11T11:12:40.872Z,35.82
2019-06-11T11:13:40.327Z,35.68
2019-06-11T11:14:40.667Z,35.60
2019-06-11T11:15:40.493Z,35.35
2019-06-11T11:16:38.550Z,35.31
2019-06-11T11:17:40.979Z,35.39
2019-06-11T11:18:40.481Z,35.31
2019-06-11T11:19:40.489Z,35.13
2019-06-11T11:20:40.766Z,35.12
2019-06-11T11:21:40.455Z,35.01
2019-06-11T11:22:40.835Z,34.94
2019-06-11T11:23:41.148Z,34.86
2019-06-11T11:24:40.506Z,34.66
2019-06-11T11:25:41.218Z,34.75
2019-06-11T11:26:41.032Z,34.76
2019-06-11T11:27:54.546Z,34.59
2019-06-11T11:28:40.665Z,34.59
2019-06-11T11:29:40.347Z,34.60
2019-06-11T11:30:40.880Z,34.53
2019-06-11T11:31:40.792Z,34.60
2019-06-11T11:32:40.572Z,34.47
2019-06-11T11:33:40.506Z,34.47
2019-06-11T11:34:39.212Z,34.41
2019-06-11T11:35:39.237Z,34.38
2019-06-11T11:36:39.273Z,34.28
2019-06-11T11:37:39.309Z,34.18
2019-06-11T11:38:40.923Z,34.07
2019-06-11T11:39:41.073Z,34.18
2019-06-11T11:40:41.092Z,34.04
2019-06-11T11:41:41.376Z,34.10
2019-06-11T11:42:41.248Z,34.11
2019-06-11T11:43:43.486Z,34.25
2019-06-11T11:44:40.349Z,34.29
2019-06-11T11:45:41.319Z,34.25
2019-06-11T11:46:40.720Z,34.25
2019-06-11T11:47:40.622Z,34.28
2019-06-11T11:48:39.695Z,34.19
2019-06-11T11:49:41.388Z,34.22
2019-06-11T11:50:40.902Z,34.03
2019-06-11T11:51:40.776Z,34.10
2019-06-11T11:52:40.961Z,33.98
2019-06-11T11:53:40.952Z,34.02
2019-06-11T11:54:40.846Z,33.92
2019-06-11T11:55:39.938Z,33.85
2019-06-11T11:56:39.981Z,33.91
2019-06-11T11:57:40.080Z,33.91
2019-06-11T11:58:42.089Z,33.92
2019-06-11T11:59:40.518Z,33.89
2019-06-11T12:00:41.404Z,34.00
2019-06-11T12:01:42.009Z,34.13
2019-06-11T12:02:40.179Z,34.22
2019-06-11T12:03:40.217Z,34.38
2019-06-11T12:04:41.352Z,34.56
2019-06-11T12:05:40.949Z,34.69
2019-06-11T12:06:40.322Z,34.97
2019-06-11T12:07:41.310Z,35.15
2019-06-11T12:08:40.395Z,35.44
2019-06-11T12:09:40.433Z,35.75
2019-06-11T12:10:41.578Z,35.88
2019-06-11T12:11:40.514Z,35.94
2019-06-11T12:12:48.999Z,36.01
2019-06-11T12:13:40.584Z,36.22
2019-06-11T12:14:40.624Z,36.20
2019-06-11T12:15:40.657Z,36.22
2019-06-11T12:16:42.355Z,36.18
2019-06-11T12:17:40.781Z,36.05
2019-06-11T12:18:56.845Z,36.03
2019-06-11T12:19:40.809Z,35.96
2019-06-11T12:20:40.845Z,36.01
2019-06-11T12:21:41.366Z,35.94
2019-06-11T12:22:41.187Z,35.94
2019-06-11T12:23:40.957Z,35.96
2019-06-11T12:24:45.203Z,35.97
2019-06-11T12:25:41.344Z,35.79
2019-06-11T12:26:41.066Z,35.71
2019-06-11T12:27:41.099Z,35.75
2019-06-11T12:28:41.239Z,35.72
2019-06-11T12:29:41.172Z,35.60
2019-06-11T12:30:41.254Z,35.41
2019-06-11T12:31:41.301Z,35.32
2019-06-11T12:32:41.277Z,35.27
2019-06-11T12:33:42.125Z,35.23
2019-06-11T12:34:44.631Z,35.32
2019-06-11T12:35:41.381Z,35.32
2019-06-11T12:36:41.420Z,35.31
2019-06-11T12:37:41.491Z,35.32
2019-06-11T12:38:42.339Z,35.45
2019-06-11T12:39:41.525Z,35.41
2019-06-11T12:40:41.866Z,35.34
2019-06-11T12:41:41.604Z,35.39
2019-06-11T12:42:41.631Z,35.45
2019-06-11T12:43:41.683Z,35.32
2019-06-11T12:44:41.706Z,35.35
2019-06-11T12:45:41.741Z,35.34
2019-06-11T12:46:42.053Z,35.35
2019-06-11T12:47:41.811Z,35.37
2019-06-11T12:48:41.847Z,35.41
2019-06-11T12:49:41.883Z,35.44
2019-06-11T12:50:41.917Z,35.30
2019-06-11T12:51:42.013Z,35.22
2019-06-11T12:52:42.176Z,35.19
2019-06-11T12:53:42.228Z,35.32
2019-06-11T12:54:42.099Z,35.52
2019-06-11T12:55:42.827Z,35.60
2019-06-11T12:56:42.305Z,35.84
2019-06-11T12:57:44.205Z,36.01
2019-06-11T12:58:43.121Z,36.09
2019-06-11T12:59:42.775Z,36.25